sensor_id;sensor_type;location;lat;lon;timestamp;pressure;altitude;pressure_sealevel;temperature;humidity
76285;BME280;71676;50.998;7.098;2023-12-20T00:01:44;100895.97;;;6.58;74.69
76285;BME280;71676;50.998;7.098;2023-12-20T00:04:11;100888.97;;;6.52;74.96
76285;BME280;71676;50.998;7.098;2023-12-20T00:06:38;100896.00;;;6.59;74.67
76285;BME280;71676;50.998;7.098;2023-12-20T00:09:04;100896.88;;;6.60;74.85
76285;BME280;71676;50.998;7.098;2023-12-20T00:11:31;100905.41;;;6.60;74.93
76285;BME280;71676;50.998;7.098;2023-12-20T00:13:59;100900.50;;;6.68;73.91
76285;BME280;71676;50.998;7.098;2023-12-20T00:16:25;100905.53;;;6.63;74.27
76285;BME280;71676;50.998;7.098;2023-12-20T00:18:51;100898.50;;;6.56;74.89
76285;BME280;71676;50.998;7.098;2023-12-20T00:21:18;100893.47;;;6.61;74.47
76285;BME280;71676;50.998;7.098;2023-12-20T00:23:45;100892.44;;;6.54;74.89
76285;BME280;71676;50.998;7.098;2023-12-20T00:26:11;100899.34;;;6.55;74.61
76285;BME280;71676;50.998;7.098;2023-12-20T00:28:38;100889.13;;;6.57;75.05
76285;BME280;71676;50.998;7.098;2023-12-20T00:31:06;100887.22;;;6.50;74.89
76285;BME280;71676;50.998;7.098;2023-12-20T00:33:32;100894.25;;;6.57;75.07
76285;BME280;71676;50.998;7.098;2023-12-20T00:35:59;100897.66;;;6.57;74.86
76285;BME280;71676;50.998;7.098;2023-12-20T00:38:26;100900.31;;;6.62;74.63
76285;BME280;71676;50.998;7.098;2023-12-20T00:40:52;100915.16;;;6.41;74.65
76285;BME280;71676;50.998;7.098;2023-12-20T00:43:19;100925.78;;;6.23;75.93
76285;BME280;71676;50.998;7.098;2023-12-20T00:45:45;100918.00;;;6.20;75.64
76285;BME280;71676;50.998;7.098;2023-12-20T00:48:13;100912.16;;;6.24;74.65
76285;BME280;71676;50.998;7.098;2023-12-20T00:50:40;100913.69;;;6.17;74.90
76285;BME280;71676;50.998;7.098;2023-12-20T00:53:07;100923.34;;;6.27;75.02
76285;BME280;71676;50.998;7.098;2023-12-20T00:55:33;100921.78;;;6.33;74.88
76285;BME280;71676;50.998;7.098;2023-12-20T00:58:00;100929.50;;;6.34;75.13
76285;BME280;71676;50.998;7.098;2023-12-20T01:00:26;100927.06;;;6.39;74.97
76285;BME280;71676;50.998;7.098;2023-12-20T01:02:53;100920.25;;;6.39;74.80
76285;BME280;71676;50.998;7.098;2023-12-20T01:05:21;100923.66;;;6.40;75.00
76285;BME280;71676;50.998;7.098;2023-12-20T01:07:48;100919.56;;;6.46;74.58
76285;BME280;71676;50.998;7.098;2023-12-20T01:10:15;100925.56;;;6.47;74.44
76285;BME280;71676;50.998;7.098;2023-12-20T01:12:43;100934.78;;;6.40;74.57
76285;BME280;71676;50.998;7.098;2023-12-20T01:15:10;100930.53;;;6.41;74.84
76285;BME280;71676;50.998;7.098;2023-12-20T01:17:36;100935.75;;;6.44;74.23
76285;BME280;71676;50.998;7.098;2023-12-20T01:20:03;100934.94;;;6.46;74.03
76285;BME280;71676;50.998;7.098;2023-12-20T01:22:32;100944.22;;;6.43;74.17
76285;BME280;71676;50.998;7.098;2023-12-20T01:25:01;100921.63;;;6.28;73.54
76285;BME280;71676;50.998;7.098;2023-12-20T01:27:27;100933.94;;;6.41;74.26
76285;BME280;71676;50.998;7.098;2023-12-20T01:29:54;100938.34;;;6.45;74.38
76285;BME280;71676;50.998;7.098;2023-12-20T01:32:21;100942.63;;;6.46;74.08
76285;BME280;71676;50.998;7.098;2023-12-20T01:34:47;100944.16;;;6.40;73.88
76285;BME280;71676;50.998;7.098;2023-12-20T01:37:14;100952.69;;;6.39;74.28
76285;BME280;71676;50.998;7.098;2023-12-20T01:39:42;100948.53;;;6.44;73.66
76285;BME280;71676;50.998;7.098;2023-12-20T01:42:08;100945.91;;;6.41;73.85
76285;BME280;71676;50.998;7.098;2023-12-20T01:44:35;100941.47;;;6.35;73.35
76285;BME280;71676;50.998;7.098;2023-12-20T01:47:02;100955.06;;;6.33;72.98
76285;BME280;71676;50.998;7.098;2023-12-20T01:49:29;100959.84;;;6.20;73.75
76285;BME280;71676;50.998;7.098;2023-12-20T01:51:56;100962.44;;;6.22;72.01
76285;BME280;71676;50.998;7.098;2023-12-20T01:54:23;100912.81;;;5.87;73.58
76285;BME280;71676;50.998;7.098;2023-12-20T01:56:51;100947.41;;;6.04;73.54
76285;BME280;71676;50.998;7.098;2023-12-20T01:59:19;100966.50;;;6.15;73.25
76285;BME280;71676;50.998;7.098;2023-12-20T02:01:46;100970.63;;;6.10;73.78
76285;BME280;71676;50.998;7.098;2023-12-20T02:04:13;100968.16;;;6.13;73.70
76285;BME280;71676;50.998;7.098;2023-12-20T02:06:40;100969.94;;;6.16;73.48
76285;BME280;71676;50.998;7.098;2023-12-20T02:09:07;100979.22;;;6.12;73.51
76285;BME280;71676;50.998;7.098;2023-12-20T02:11:34;100972.44;;;6.14;73.65
76285;BME280;71676;50.998;7.098;2023-12-20T02:14:03;100969.63;;;6.05;73.78
76285;BME280;71676;50.998;7.098;2023-12-20T02:16:30;100969.81;;;6.11;72.94
76285;BME280;71676;50.998;7.098;2023-12-20T02:18:57;100977.53;;;6.13;73.11
76285;BME280;71676;50.998;7.098;2023-12-20T02:21:31;100970.66;;;6.12;72.62
76285;BME280;71676;50.998;7.098;2023-12-20T02:23:58;100973.81;;;6.02;73.11
76285;BME280;71676;50.998;7.098;2023-12-20T02:26:25;100984.84;;;6.01;72.62
76285;BME280;71676;50.998;7.098;2023-12-20T02:28:52;100984.09;;;6.03;72.25
76285;BME280;71676;50.998;7.098;2023-12-20T02:31:20;100982.13;;;5.95;71.74
76285;BME280;71676;50.998;7.098;2023-12-20T02:33:47;100977.28;;;6.04;71.57
76285;BME280;71676;50.998;7.098;2023-12-20T02:36:14;100978.69;;;5.94;71.12
76285;BME280;71676;50.998;7.098;2023-12-20T02:38:42;100998.22;;;5.91;71.92
76285;BME280;71676;50.998;7.098;2023-12-20T02:41:08;101002.94;;;5.79;71.76
76285;BME280;71676;50.998;7.098;2023-12-20T02:43:35;101011.41;;;5.76;71.35
76285;BME280;71676;50.998;7.098;2023-12-20T02:46:02;101006.75;;;5.63;71.74
76285;BME280;71676;50.998;7.098;2023-12-20T02:48:28;100996.59;;;5.66;71.80
76285;BME280;71676;50.998;7.098;2023-12-20T02:50:55;101012.84;;;5.67;72.25
76285;BME280;71676;50.998;7.098;2023-12-20T02:53:21;100978.00;;;5.44;72.10
76285;BME280;71676;50.998;7.098;2023-12-20T02:55:49;101010.22;;;5.65;71.72
76285;BME280;71676;50.998;7.098;2023-12-20T02:58:16;101013.84;;;5.72;71.02
76285;BME280;71676;50.998;7.098;2023-12-20T03:00:43;101009.34;;;5.65;71.38
76285;BME280;71676;50.998;7.098;2023-12-20T03:03:10;101014.28;;;5.59;71.51
76285;BME280;71676;50.998;7.098;2023-12-20T03:05:37;101013.50;;;5.61;72.28
76285;BME280;71676;50.998;7.098;2023-12-20T03:08:04;101023.50;;;5.54;71.69
76285;BME280;71676;50.998;7.098;2023-12-20T03:10:30;101017.56;;;5.55;72.02
76285;BME280;71676;50.998;7.098;2023-12-20T03:12:58;101009.16;;;5.59;71.18
76285;BME280;71676;50.998;7.098;2023-12-20T03:15:25;101014.41;;;5.63;71.48
76285;BME280;71676;50.998;7.098;2023-12-20T03:17:51;101011.78;;;5.60;71.55
76285;BME280;71676;50.998;7.098;2023-12-20T03:20:18;101003.44;;;5.67;70.73
76285;BME280;71676;50.998;7.098;2023-12-20T03:22:45;101000.94;;;5.69;70.37
76285;BME280;71676;50.998;7.098;2023-12-20T03:25:11;101004.31;;;5.68;69.99
76285;BME280;71676;50.998;7.098;2023-12-20T03:27:38;101003.91;;;5.54;70.38
76285;BME280;71676;50.998;7.098;2023-12-20T03:30:07;101009.75;;;5.50;70.73
76285;BME280;71676;50.998;7.098;2023-12-20T03:32:34;101002.25;;;5.56;70.24
76285;BME280;71676;50.998;7.098;2023-12-20T03:35:01;101002.19;;;5.55;69.83
76285;BME280;71676;50.998;7.098;2023-12-20T03:37:28;101001.34;;;5.54;70.05
76285;BME280;71676;50.998;7.098;2023-12-20T03:39:54;100957.66;;;5.20;70.78
76285;BME280;71676;50.998;7.098;2023-12-20T03:42:21;101000.81;;;5.38;70.96
76285;BME280;71676;50.998;7.098;2023-12-20T03:44:48;101000.13;;;5.43;71.15
76285;BME280;71676;50.998;7.098;2023-12-20T03:47:16;101001.94;;;5.46;71.28
76285;BME280;71676;50.998;7.098;2023-12-20T03:49:42;101000.97;;;5.42;71.26
76285;BME280;71676;50.998;7.098;2023-12-20T03:52:09;101001.44;;;5.57;70.28
76285;BME280;71676;50.998;7.098;2023-12-20T03:54:35;101009.31;;;5.63;70.00
76285;BME280;71676;50.998;7.098;2023-12-20T03:57:02;101006.47;;;5.54;70.40
76285;BME280;71676;50.998;7.098;2023-12-20T03:59:29;100999.13;;;5.65;69.27
76285;BME280;71676;50.998;7.098;2023-12-20T04:01:56;100993.06;;;5.63;69.23
76285;BME280;71676;50.998;7.098;2023-12-20T04:04:24;100993.50;;;5.50;69.94
76285;BME280;71676;50.998;7.098;2023-12-20T04:06:50;100998.81;;;5.54;69.78
76285;BME280;71676;50.998;7.098;2023-12-20T04:09:17;101004.53;;;5.47;70.35
76285;BME280;71676;50.998;7.098;2023-12-20T04:11:44;101005.47;;;5.49;70.10
76285;BME280;71676;50.998;7.098;2023-12-20T04:14:10;101008.84;;;5.50;69.67
76285;BME280;71676;50.998;7.098;2023-12-20T04:16:37;101002.94;;;5.51;69.83
76285;BME280;71676;50.998;7.098;2023-12-20T04:19:04;101018.16;;;5.46;70.71
76285;BME280;71676;50.998;7.098;2023-12-20T04:21:32;101002.59;;;5.40;70.81
76285;BME280;71676;50.998;7.098;2023-12-20T04:23:59;101000.06;;;5.42;70.15
76285;BME280;71676;50.998;7.098;2023-12-20T04:26:25;100999.31;;;5.44;69.62
76285;BME280;71676;50.998;7.098;2023-12-20T04:28:52;101002.84;;;5.48;69.78
76285;BME280;71676;50.998;7.098;2023-12-20T04:31:18;100990.78;;;5.44;70.31
76285;BME280;71676;50.998;7.098;2023-12-20T04:33:45;100992.81;;;5.54;69.07
76285;BME280;71676;50.998;7.098;2023-12-20T04:36:12;100998.72;;;5.53;69.62
76285;BME280;71676;50.998;7.098;2023-12-20T04:38:40;101009.66;;;5.47;69.76
76285;BME280;71676;50.998;7.098;2023-12-20T04:41:07;101006.31;;;5.50;69.74
76285;BME280;71676;50.998;7.098;2023-12-20T04:43:33;101017.28;;;5.46;70.33
76285;BME280;71676;50.998;7.098;2023-12-20T04:46:00;101019.00;;;5.47;70.08
76285;BME280;71676;50.998;7.098;2023-12-20T04:48:27;101021.66;;;5.50;69.94
76285;BME280;71676;50.998;7.098;2023-12-20T04:50:54;101013.94;;;5.48;69.99
76285;BME280;71676;50.998;7.098;2023-12-20T04:53:21;101012.91;;;5.43;69.84
76285;BME280;71676;50.998;7.098;2023-12-20T04:55:49;101019.84;;;5.46;70.14
76285;BME280;71676;50.998;7.098;2023-12-20T04:58:16;100985.03;;;5.24;69.82
76285;BME280;71676;50.998;7.098;2023-12-20T05:00:42;100999.84;;;5.34;69.50
76285;BME280;71676;50.998;7.098;2023-12-20T05:03:09;101012.16;;;5.46;69.18
76285;BME280;71676;50.998;7.098;2023-12-20T05:05:36;100999.94;;;5.37;69.00
76285;BME280;71676;50.998;7.098;2023-12-20T05:08:03;101016.06;;;5.35;69.48
76285;BME280;71676;50.998;7.098;2023-12-20T05:10:30;101017.94;;;5.40;69.15
76285;BME280;71676;50.998;7.098;2023-12-20T05:12:58;101015.13;;;5.33;69.87
76285;BME280;71676;50.998;7.098;2023-12-20T05:15:24;101007.34;;;5.28;70.16
76285;BME280;71676;50.998;7.098;2023-12-20T05:17:51;101022.63;;;5.27;69.84
76285;BME280;71676;50.998;7.098;2023-12-20T05:20:17;101013.19;;;5.26;70.04
76285;BME280;71676;50.998;7.098;2023-12-20T05:22:44;101025.03;;;5.22;69.91
76285;BME280;71676;50.998;7.098;2023-12-20T05:25:11;101018.03;;;5.17;70.44
76285;BME280;71676;50.998;7.098;2023-12-20T05:27:38;101026.25;;;5.33;69.28
76285;BME280;71676;50.998;7.098;2023-12-20T05:30:07;101018.47;;;5.30;69.27
76285;BME280;71676;50.998;7.098;2023-12-20T05:32:34;101021.66;;;5.23;69.34
76285;BME280;71676;50.998;7.098;2023-12-20T05:35:00;101014.75;;;5.21;69.42
76285;BME280;71676;50.998;7.098;2023-12-20T05:37:27;101021.44;;;5.17;69.23
76285;BME280;71676;50.998;7.098;2023-12-20T05:39:54;101019.56;;;5.12;69.60
76285;BME280;71676;50.998;7.098;2023-12-20T05:42:20;101000.63;;;5.07;69.65
76285;BME280;71676;50.998;7.098;2023-12-20T05:44:47;101021.66;;;5.23;69.09
76285;BME280;71676;50.998;7.098;2023-12-20T05:47:15;101019.59;;;5.13;69.55
76285;BME280;71676;50.998;7.098;2023-12-20T05:49:42;101014.34;;;5.09;69.29
76285;BME280;71676;50.998;7.098;2023-12-20T05:52:09;101020.19;;;5.05;69.95
76285;BME280;71676;50.998;7.098;2023-12-20T05:54:35;101017.78;;;5.09;69.54
76285;BME280;71676;50.998;7.098;2023-12-20T05:57:02;101022.09;;;5.12;69.76
76285;BME280;71676;50.998;7.098;2023-12-20T05:59:29;101013.78;;;5.17;68.85
76285;BME280;71676;50.998;7.098;2023-12-20T06:01:55;101013.69;;;5.14;69.13
76285;BME280;71676;50.998;7.098;2023-12-20T06:04:23;101023.03;;;5.14;68.36
76285;BME280;71676;50.998;7.098;2023-12-20T06:06:50;101022.31;;;5.18;68.53
76285;BME280;71676;50.998;7.098;2023-12-20T06:09:17;101025.53;;;5.12;69.01
76285;BME280;71676;50.998;7.098;2023-12-20T06:11:43;101014.00;;;4.98;68.88
76285;BME280;71676;50.998;7.098;2023-12-20T06:14:10;101018.63;;;5.10;68.74
76285;BME280;71676;50.998;7.098;2023-12-20T06:16:36;101018.75;;;5.13;68.37
76285;BME280;71676;50.998;7.098;2023-12-20T06:19:03;101025.41;;;5.08;69.24
76285;BME280;71676;50.998;7.098;2023-12-20T06:21:31;101026.03;;;5.02;69.56
76285;BME280;71676;50.998;7.098;2023-12-20T06:23:58;101025.13;;;5.00;69.70
76285;BME280;71676;50.998;7.098;2023-12-20T06:26:25;101029.88;;;5.15;69.05
76285;BME280;71676;50.998;7.098;2023-12-20T06:28:52;101025.50;;;5.11;69.25
76285;BME280;71676;50.998;7.098;2023-12-20T06:31:19;101038.22;;;5.09;68.67
76285;BME280;71676;50.998;7.098;2023-12-20T06:33:45;101033.75;;;5.04;69.28
76285;BME280;71676;50.998;7.098;2023-12-20T06:36:12;101028.84;;;5.10;68.85
76285;BME280;71676;50.998;7.098;2023-12-20T06:38:41;101031.78;;;4.95;69.70
76285;BME280;71676;50.998;7.098;2023-12-20T06:41:08;101032.84;;;5.02;69.63
76285;BME280;71676;50.998;7.098;2023-12-20T06:43:35;101032.84;;;5.02;69.86
76285;BME280;71676;50.998;7.098;2023-12-20T06:46:01;101035.78;;;4.87;70.49
76285;BME280;71676;50.998;7.098;2023-12-20T06:48:28;101037.00;;;4.98;69.97
76285;BME280;71676;50.998;7.098;2023-12-20T06:50:55;101033.97;;;5.10;69.61
76285;BME280;71676;50.998;7.098;2023-12-20T06:53:21;101022.06;;;5.10;69.64
76285;BME280;71676;50.998;7.098;2023-12-20T06:55:49;101029.47;;;5.03;70.19
76285;BME280;71676;50.998;7.098;2023-12-20T06:58:16;101025.53;;;5.12;69.24
76285;BME280;71676;50.998;7.098;2023-12-20T07:00:43;101031.41;;;5.10;69.19
76285;BME280;71676;50.998;7.098;2023-12-20T07:03:09;101027.25;;;5.13;69.11
76285;BME280;71676;50.998;7.098;2023-12-20T07:05:36;101033.72;;;5.02;69.45
76285;BME280;71676;50.998;7.098;2023-12-20T07:08:03;101036.91;;;4.95;70.22
76285;BME280;71676;50.998;7.098;2023-12-20T07:10:30;101041.53;;;5.07;69.43
76285;BME280;71676;50.998;7.098;2023-12-20T07:12:58;101036.28;;;5.02;69.81
76285;BME280;71676;50.998;7.098;2023-12-20T07:15:25;101039.50;;;4.97;70.35
76285;BME280;71676;50.998;7.098;2023-12-20T07:17:52;101032.63;;;4.96;70.29
76285;BME280;71676;50.998;7.098;2023-12-20T07:20:18;101044.88;;;5.04;69.50
76285;BME280;71676;50.998;7.098;2023-12-20T07:22:45;101046.53;;;5.04;69.49
76285;BME280;71676;50.998;7.098;2023-12-20T07:25:13;101043.25;;;5.06;69.09
76285;BME280;71676;50.998;7.098;2023-12-20T07:27:39;101037.50;;;5.13;68.90
76285;BME280;71676;50.998;7.098;2023-12-20T07:30:09;101036.56;;;5.11;69.21
76285;BME280;71676;50.998;7.098;2023-12-20T07:32:36;101038.31;;;5.12;69.09
76285;BME280;71676;50.998;7.098;2023-12-20T07:35:03;101031.53;;;5.13;68.70
76285;BME280;71676;50.998;7.098;2023-12-20T07:37:30;101033.25;;;5.14;68.84
76285;BME280;71676;50.998;7.098;2023-12-20T07:39:57;101039.25;;;5.14;69.17
76285;BME280;71676;50.998;7.098;2023-12-20T07:42:23;101036.47;;;5.33;67.11
76285;BME280;71676;50.998;7.098;2023-12-20T07:44:50;101031.44;;;5.11;68.43
76285;BME280;71676;50.998;7.098;2023-12-20T07:47:18;101044.97;;;5.07;68.93
76285;BME280;71676;50.998;7.098;2023-12-20T07:49:47;101047.47;;;5.06;68.50
76285;BME280;71676;50.998;7.098;2023-12-20T07:52:14;101048.75;;;5.18;68.27
76285;BME280;71676;50.998;7.098;2023-12-20T07:54:40;101054.84;;;5.22;67.88
76285;BME280;71676;50.998;7.098;2023-12-20T07:57:07;101035.13;;;5.19;67.84
76285;BME280;71676;50.998;7.098;2023-12-20T07:59:34;101041.84;;;5.16;68.33
76285;BME280;71676;50.998;7.098;2023-12-20T08:02:01;101043.81;;;5.24;67.76
76285;BME280;71676;50.998;7.098;2023-12-20T08:04:29;101040.63;;;5.30;67.31
76285;BME280;71676;50.998;7.098;2023-12-20T08:06:55;101044.59;;;5.22;67.48
76285;BME280;71676;50.998;7.098;2023-12-20T08:09:22;101046.28;;;5.21;67.64
76285;BME280;71676;50.998;7.098;2023-12-20T08:11:49;101047.31;;;5.26;67.83
76285;BME280;71676;50.998;7.098;2023-12-20T08:14:16;101046.19;;;5.18;67.96
76285;BME280;71676;50.998;7.098;2023-12-20T08:16:43;101056.50;;;5.21;68.32
76285;BME280;71676;50.998;7.098;2023-12-20T08:19:09;101060.00;;;5.23;67.72
76285;BME280;71676;50.998;7.098;2023-12-20T08:21:37;101050.47;;;5.19;68.18
76285;BME280;71676;50.998;7.098;2023-12-20T08:24:07;101048.75;;;5.18;68.18
76285;BME280;71676;50.998;7.098;2023-12-20T08:26:34;101044.59;;;5.22;68.01
76285;BME280;71676;50.998;7.098;2023-12-20T08:29:00;101029.03;;;5.14;67.44
76285;BME280;71676;50.998;7.098;2023-12-20T08:31:26;101048.34;;;5.31;67.75
76285;BME280;71676;50.998;7.098;2023-12-20T08:33:53;101048.34;;;5.31;67.87
76285;BME280;71676;50.998;7.098;2023-12-20T08:36:20;101054.31;;;5.32;66.96
76285;BME280;71676;50.998;7.098;2023-12-20T08:38:50;101052.38;;;5.25;67.25
76285;BME280;71676;50.998;7.098;2023-12-20T08:41:16;101040.97;;;5.15;67.54
76285;BME280;71676;50.998;7.098;2023-12-20T08:43:43;101047.22;;;5.23;67.36
76285;BME280;71676;50.998;7.098;2023-12-20T08:46:10;101058.38;;;5.25;66.95
76285;BME280;71676;50.998;7.098;2023-12-20T08:48:37;101062.75;;;5.29;67.06
76285;BME280;71676;50.998;7.098;2023-12-20T08:51:03;101067.72;;;5.25;67.91
76285;BME280;71676;50.998;7.098;2023-12-20T08:53:32;101066.09;;;5.27;67.13
76285;BME280;71676;50.998;7.098;2023-12-20T08:56:00;101071.38;;;5.33;67.14
76285;BME280;71676;50.998;7.098;2023-12-20T08:58:27;101072.97;;;5.29;67.12
76285;BME280;71676;50.998;7.098;2023-12-20T09:00:54;101067.72;;;5.25;66.54
76285;BME280;71676;50.998;7.098;2023-12-20T09:03:20;101077.34;;;5.32;66.65
76285;BME280;71676;50.998;7.098;2023-12-20T09:05:47;101064.59;;;5.33;67.10
76285;BME280;71676;50.998;7.098;2023-12-20T09:08:14;101061.81;;;5.27;67.11
76285;BME280;71676;50.998;7.098;2023-12-20T09:10:40;101050.22;;;5.12;67.28
76285;BME280;71676;50.998;7.098;2023-12-20T09:13:08;101074.72;;;5.30;66.78
76285;BME280;71676;50.998;7.098;2023-12-20T09:15:35;101078.22;;;5.34;66.83
76285;BME280;71676;50.998;7.098;2023-12-20T09:18:02;101072.31;;;5.35;66.66
76285;BME280;71676;50.998;7.098;2023-12-20T09:20:29;101057.53;;;5.26;66.94
76285;BME280;71676;50.998;7.098;2023-12-20T09:22:55;101051.88;;;5.35;66.17
76285;BME280;71676;50.998;7.098;2023-12-20T09:25:22;101053.47;;;5.06;67.43
76285;BME280;71676;50.998;7.098;2023-12-20T09:27:49;101041.06;;;5.18;66.97
76285;BME280;71676;50.998;7.098;2023-12-20T09:30:16;101038.16;;;5.33;66.04
76285;BME280;71676;50.998;7.098;2023-12-20T09:32:43;100998.47;;;4.93;66.73
76285;BME280;71676;50.998;7.098;2023-12-20T09:35:10;101039.44;;;5.20;67.41
76285;BME280;71676;50.998;7.098;2023-12-20T09:37:36;101043.06;;;5.27;66.63
76285;BME280;71676;50.998;7.098;2023-12-20T09:40:04;101051.44;;;5.23;67.04
76285;BME280;71676;50.998;7.098;2023-12-20T09:42:38;101049.78;;;5.23;67.71
76285;BME280;71676;50.998;7.098;2023-12-20T09:45:08;101048.19;;;5.27;66.75
76285;BME280;71676;50.998;7.098;2023-12-20T09:47:37;101038.38;;;5.40;65.96
76285;BME280;71676;50.998;7.098;2023-12-20T09:50:05;101035.69;;;5.36;66.65
76285;BME280;71676;50.998;7.098;2023-12-20T09:52:31;101040.72;;;5.33;66.88
76285;BME280;71676;50.998;7.098;2023-12-20T09:55:01;101045.63;;;5.27;66.95
76285;BME280;71676;50.998;7.098;2023-12-20T09:57:31;101036.06;;;5.21;67.43
76285;BME280;71676;50.998;7.098;2023-12-20T09:59:57;101041.50;;;5.30;66.79
76285;BME280;71676;50.998;7.098;2023-12-20T10:02:25;101039.78;;;5.31;66.93
76285;BME280;71676;50.998;7.098;2023-12-20T10:04:54;101040.06;;;5.38;65.93
76285;BME280;71676;50.998;7.098;2023-12-20T10:07:21;101042.97;;;5.24;66.16
76285;BME280;71676;50.998;7.098;2023-12-20T10:09:48;101042.72;;;5.41;65.79
76285;BME280;71676;50.998;7.098;2023-12-20T10:12:15;101042.75;;;5.43;65.85
76285;BME280;71676;50.998;7.098;2023-12-20T10:14:41;101043.22;;;5.31;66.88
76285;BME280;71676;50.998;7.098;2023-12-20T10:17:08;101020.47;;;5.14;66.62
76285;BME280;71676;50.998;7.098;2023-12-20T10:19:36;101038.50;;;5.43;65.86
76285;BME280;71676;50.998;7.098;2023-12-20T10:22:05;101032.53;;;5.43;66.00
76285;BME280;71676;50.998;7.098;2023-12-20T10:24:31;101045.59;;;5.25;66.57
76285;BME280;71676;50.998;7.098;2023-12-20T10:27:02;101032.25;;;5.35;66.35
76285;BME280;71676;50.998;7.098;2023-12-20T10:29:32;101024.81;;;5.16;67.44
76285;BME280;71676;50.998;7.098;2023-12-20T10:31:58;101010.03;;;5.33;66.35
76285;BME280;71676;50.998;7.098;2023-12-20T10:34:25;101018.03;;;5.43;66.68
76285;BME280;71676;50.998;7.098;2023-12-20T10:36:52;101021.50;;;5.45;66.42
76285;BME280;71676;50.998;7.098;2023-12-20T10:39:20;101009.69;;;5.49;66.11
76285;BME280;71676;50.998;7.098;2023-12-20T10:41:47;101005.16;;;5.40;66.38
76285;BME280;71676;50.998;7.098;2023-12-20T10:44:14;101015.09;;;5.31;67.25
76285;BME280;71676;50.998;7.098;2023-12-20T10:46:41;100994.34;;;5.49;66.03
76285;BME280;71676;50.998;7.098;2023-12-20T10:49:16;100991.22;;;5.57;65.63
76285;BME280;71676;50.998;7.098;2023-12-20T10:51:45;100992.63;;;5.48;66.42
76285;BME280;71676;50.998;7.098;2023-12-20T10:54:14;100989.19;;;5.47;65.45
76285;BME280;71676;50.998;7.098;2023-12-20T10:56:42;100996.94;;;5.50;65.94
76285;BME280;71676;50.998;7.098;2023-12-20T10:59:11;100991.75;;;5.47;65.62
76285;BME280;71676;50.998;7.098;2023-12-20T11:01:40;100991.97;;;5.55;65.76
76285;BME280;71676;50.998;7.098;2023-12-20T11:04:13;100986.75;;;5.52;65.60
76285;BME280;71676;50.998;7.098;2023-12-20T11:06:46;100993.69;;;5.54;65.55
76285;BME280;71676;50.998;7.098;2023-12-20T11:09:20;100995.84;;;5.42;66.13
76285;BME280;71676;50.998;7.098;2023-12-20T11:12:03;100986.19;;;5.34;66.15
76285;BME280;71676;50.998;7.098;2023-12-20T11:14:39;100996.78;;;5.44;66.37
76285;BME280;71676;50.998;7.098;2023-12-20T11:17:08;100961.69;;;5.40;65.80
76285;BME280;71676;50.998;7.098;2023-12-20T11:19:38;100987.69;;;5.54;65.88
76285;BME280;71676;50.998;7.098;2023-12-20T11:22:04;101000.13;;;5.43;66.41
76285;BME280;71676;50.998;7.098;2023-12-20T11:24:33;100992.72;;;5.51;66.06
76285;BME280;71676;50.998;7.098;2023-12-20T11:27:01;100979.38;;;5.34;66.42
76285;BME280;71676;50.998;7.098;2023-12-20T11:29:34;100972.59;;;5.35;66.24
76285;BME280;71676;50.998;7.098;2023-12-20T11:32:02;100996.59;;;5.38;66.91
76285;BME280;71676;50.998;7.098;2023-12-20T11:34:31;100977.06;;;5.42;66.84
76285;BME280;71676;50.998;7.098;2023-12-20T11:36:59;100971.16;;;5.43;66.77
76285;BME280;71676;50.998;7.098;2023-12-20T11:39:26;100975.09;;;5.60;65.85
76285;BME280;71676;50.998;7.098;2023-12-20T11:41:55;100969.00;;;5.56;65.94
76285;BME280;71676;50.998;7.098;2023-12-20T11:44:25;100967.41;;;5.32;66.80
76285;BME280;71676;50.998;7.098;2023-12-20T11:46:51;100970.66;;;5.54;66.50
76285;BME280;71676;50.998;7.098;2023-12-20T11:49:23;100976.22;;;5.41;66.84
76285;BME280;71676;50.998;7.098;2023-12-20T11:51:49;100971.47;;;5.53;65.87
76285;BME280;71676;50.998;7.098;2023-12-20T11:54:16;100969.25;;;5.64;65.67
76285;BME280;71676;50.998;7.098;2023-12-20T11:56:43;100963.13;;;5.59;65.54
76285;BME280;71676;50.998;7.098;2023-12-20T11:59:10;100961.41;;;5.59;65.82
76285;BME280;71676;50.998;7.098;2023-12-20T12:01:38;100951.88;;;5.54;66.29
76285;BME280;71676;50.998;7.098;2023-12-20T12:04:05;100953.56;;;5.53;66.35
76285;BME280;71676;50.998;7.098;2023-12-20T12:06:32;100960.44;;;5.54;66.05
76285;BME280;71676;50.998;7.098;2023-12-20T12:08:58;100947.00;;;5.61;65.91
76285;BME280;71676;50.998;7.098;2023-12-20T12:11:25;100944.56;;;5.66;65.97
76285;BME280;71676;50.998;7.098;2023-12-20T12:13:52;100947.81;;;5.60;66.54
76285;BME280;71676;50.998;7.098;2023-12-20T12:16:20;100954.00;;;5.67;66.37
76285;BME280;71676;50.998;7.098;2023-12-20T12:18:55;100939.09;;;5.54;66.52
76285;BME280;71676;50.998;7.098;2023-12-20T12:21:21;100936.28;;;5.74;66.19
76285;BME280;71676;50.998;7.098;2023-12-20T12:23:48;100943.34;;;5.53;67.07
76285;BME280;71676;50.998;7.098;2023-12-20T12:26:15;100933.31;;;5.61;67.26
76285;BME280;71676;50.998;7.098;2023-12-20T12:28:42;100931.69;;;5.63;66.65
76285;BME280;71676;50.998;7.098;2023-12-20T12:31:13;100917.72;;;5.52;67.06
76285;BME280;71676;50.998;7.098;2023-12-20T12:33:40;100937.34;;;5.53;67.14
76285;BME280;71676;50.998;7.098;2023-12-20T12:36:10;100920.34;;;5.55;66.72
76285;BME280;71676;50.998;7.098;2023-12-20T12:38:37;100927.91;;;5.50;67.31
76285;BME280;71676;50.998;7.098;2023-12-20T12:41:04;100918.63;;;5.54;67.40
76285;BME280;71676;50.998;7.098;2023-12-20T12:43:32;100923.03;;;5.59;67.38
76285;BME280;71676;50.998;7.098;2023-12-20T12:45:59;100923.22;;;5.64;66.92
76285;BME280;71676;50.998;7.098;2023-12-20T12:48:25;100912.94;;;5.62;66.97
76285;BME280;71676;50.998;7.098;2023-12-20T12:50:53;100910.63;;;5.71;66.60
76285;BME280;71676;50.998;7.098;2023-12-20T12:53:23;100913.91;;;5.67;66.83
76285;BME280;71676;50.998;7.098;2023-12-20T12:55:50;100872.22;;;5.42;67.32
76285;BME280;71676;50.998;7.098;2023-12-20T12:58:17;100909.63;;;5.66;67.42
76285;BME280;71676;50.998;7.098;2023-12-20T13:00:43;100894.41;;;5.71;66.78